This is the latest recevied weather packets stored in our database for station/object WD7CGF. If no packets are shown the sender has not sent any weather packets the latest 10 day(s).
| Time | Temp. | Humidity | Pressure | Rain* | Wind** | Luminosity | Snow |
|---|---|---|---|---|---|---|---|
| 1787670519 | 13.33° C | 78% | 1017.1 hPa | 0 mm | - | - | - |
| 1787669913 | 12.78° C | 82% | 1017.2 hPa | 0 mm | - | - | - |
| 1787669326 | 11.67° C | 85% | 1017.2 hPa | 0 mm | - | - | - |
| 1787668724 | 10.56° C | 86% | 1017.3 hPa | 0 mm | - | - | - |
| 1787668118 | 10° C | 88% | 1017.4 hPa | 0 mm | - | - | - |
| 1787667511 | 9.44° C | 88% | 1017.4 hPa | 0 mm | - | - | - |
| 1787666925 | 9.44° C | 88% | 1016.9 hPa | 0 mm | - | - | - |
| 1787666321 | 8.89° C | 88% | 1017 hPa | 0 mm | - | - | - |
| 1787665714 | 8.89° C | 87% | 1017 hPa | 0 mm | - | - | - |
| 1787665128 | 8.89° C | 87% | 1016.8 hPa | 0 mm | - | - | - |
| 1787664521 | 8.89° C | 87% | 1016.4 hPa | 0 mm | - | - | - |
| 1787663916 | 9.44° C | 87% | 1016.4 hPa | 0 mm | - | - | - |
| 1787663312 | 9.44° C | 87% | 1017.2 hPa | 0 mm | - | - | - |
| 1787662730 | 9.44° C | 86% | 1017.1 hPa | 0 mm | - | - | - |
| 1787662122 | 9.44° C | 86% | 1017.1 hPa | 0 mm | - | - | - |
| 1787661516 | 9.44° C | 86% | 1017.1 hPa | 0 mm | - | - | - |
| 1787660931 | 9.44° C | 85% | 1017 hPa | 0 mm | - | - | - |
| 1787660326 | 9.44° C | 86% | 1017 hPa | 0 mm | - | - | - |
| 1787659724 | 9.44° C | 86% | 1016.7 hPa | 0 mm | - | - | - |
| 1787659118 | 9.44° C | 86% | 1016.7 hPa | 0 mm | - | - | - |
| 1787658531 | 10° C | 86% | 1016.7 hPa | 0 mm | - | - | - |
| 1787657922 | 10° C | 86% | 1016.8 hPa | 0 mm | - | - | - |
| 1787657316 | 10° C | 85% | 1016.7 hPa | 0 mm | - | - | - |
| 1787656729 | 10° C | 85% | 1016.7 hPa | 0 mm | - | - | - |
| 1787656122 | 10.56° C | 85% | 1016.6 hPa | 0 mm | - | - | - |
* Rain latest hour (hover to see other rain measurements)
** Current wind speed in m/s (hover to see current wind gust speed)